createdAt,value
2022-10-10T00:01:27.133Z,100.00
2022-10-10T00:03:55.310Z,100.00
2022-10-10T00:06:23.316Z,100.00
2022-10-10T00:08:51.167Z,100.00
2022-10-10T00:11:22.403Z,100.00
2022-10-10T00:13:50.808Z,100.00
2022-10-10T00:16:19.104Z,100.00
2022-10-10T00:18:47.244Z,100.00
2022-10-10T00:21:14.828Z,100.00
2022-10-10T00:23:42.583Z,100.00
2022-10-10T00:26:14.984Z,100.00
2022-10-10T00:28:46.589Z,100.00
2022-10-10T00:31:14.289Z,100.00
2022-10-10T00:33:41.732Z,100.00
2022-10-10T00:36:09.642Z,100.00
2022-10-10T00:38:37.371Z,100.00
2022-10-10T00:41:05.571Z,100.00
2022-10-10T00:43:34.104Z,100.00
2022-10-10T00:46:01.634Z,100.00
2022-10-10T00:48:31.464Z,100.00
2022-10-10T00:51:03.272Z,100.00
2022-10-10T00:53:38.798Z,100.00
2022-10-10T00:56:08.345Z,100.00
2022-10-10T00:58:37.548Z,100.00
2022-10-10T01:01:05.392Z,100.00
2022-10-10T01:03:32.903Z,100.00
2022-10-10T01:06:00.875Z,100.00
2022-10-10T01:08:28.690Z,100.00
2022-10-10T01:11:14.490Z,100.00
2022-10-10T01:14:20.073Z,100.00
2022-10-10T01:17:04.608Z,100.00
2022-10-10T01:20:25.997Z,100.00
2022-10-10T01:22:56.082Z,100.00
2022-10-10T01:25:46.816Z,100.00
2022-10-10T01:28:27.135Z,100.00
2022-10-10T01:30:57.278Z,100.00
2022-10-10T01:33:36.432Z,100.00
2022-10-10T01:36:03.892Z,100.00
2022-10-10T01:38:45.684Z,100.00
2022-10-10T01:41:19.988Z,100.00
2022-10-10T01:43:53.294Z,100.00
2022-10-10T01:46:20.762Z,100.00
2022-10-10T01:48:51.718Z,100.00
2022-10-10T01:51:43.471Z,100.00
2022-10-10T01:54:18.826Z,100.00
2022-10-10T01:56:59.252Z,100.00
2022-10-10T01:59:32.011Z,100.00
2022-10-10T02:02:08.810Z,100.00
2022-10-10T02:05:00.854Z,100.00
2022-10-10T02:07:34.394Z,100.00
2022-10-10T02:10:06.863Z,100.00
2022-10-10T02:12:36.978Z,100.00
2022-10-10T02:15:16.627Z,100.00
2022-10-10T02:17:47.300Z,100.00
2022-10-10T02:20:18.945Z,100.00
2022-10-10T02:22:50.531Z,100.00
2022-10-10T02:25:22.850Z,100.00
2022-10-10T02:28:04.678Z,100.00
2022-10-10T02:30:36.616Z,100.00
2022-10-10T02:33:07.664Z,100.00
2022-10-10T02:35:40.633Z,100.00
2022-10-10T02:38:11.259Z,100.00
2022-10-10T02:40:41.803Z,100.00
2022-10-10T02:43:11.154Z,100.00
2022-10-10T02:45:40.627Z,100.00
2022-10-10T02:48:09.510Z,100.00
2022-10-10T02:50:37.578Z,100.00
2022-10-10T02:53:05.118Z,100.00
2022-10-10T02:55:32.970Z,100.00
2022-10-10T02:58:00.754Z,100.00
2022-10-10T03:00:28.515Z,100.00
2022-10-10T03:02:56.263Z,100.00
2022-10-10T03:05:24.009Z,100.00
2022-10-10T03:07:51.773Z,100.00
2022-10-10T03:10:19.419Z,100.00
2022-10-10T03:12:46.917Z,100.00
2022-10-10T03:15:14.598Z,100.00
2022-10-10T03:17:42.594Z,100.00
2022-10-10T03:20:11.522Z,100.00
2022-10-10T03:22:38.994Z,100.00
2022-10-10T03:25:06.722Z,100.00
2022-10-10T03:27:34.185Z,100.00
2022-10-10T03:30:01.704Z,100.00
2022-10-10T03:32:29.326Z,100.00
2022-10-10T03:34:56.829Z,100.00
2022-10-10T03:37:24.350Z,100.00
2022-10-10T03:39:52.287Z,100.00
2022-10-10T03:42:19.824Z,100.00
2022-10-10T03:44:47.556Z,100.00
2022-10-10T03:47:15.174Z,100.00
2022-10-10T03:49:42.639Z,100.00
2022-10-10T03:52:10.186Z,100.00
2022-10-10T03:54:37.860Z,100.00
2022-10-10T03:57:05.501Z,100.00
2022-10-10T03:59:33.264Z,100.00
2022-10-10T04:02:00.714Z,100.00
2022-10-10T04:04:28.358Z,100.00
2022-10-10T04:06:55.830Z,100.00
2022-10-10T04:09:23.674Z,100.00
2022-10-10T04:11:51.360Z,100.00
2022-10-10T04:14:19.062Z,100.00
2022-10-10T04:16:46.768Z,100.00
2022-10-10T04:19:14.744Z,100.00
2022-10-10T04:21:42.387Z,100.00
2022-10-10T04:24:10.078Z,100.00
2022-10-10T04:26:37.633Z,100.00
2022-10-10T04:29:05.398Z,100.00
2022-10-10T04:31:33.067Z,100.00
2022-10-10T04:34:00.801Z,100.00
2022-10-10T04:36:28.483Z,100.00
2022-10-10T04:38:56.049Z,100.00
2022-10-10T04:41:23.793Z,100.00
2022-10-10T04:43:51.447Z,100.00
2022-10-10T04:46:19.137Z,100.00
2022-10-10T04:48:46.817Z,100.00
2022-10-10T04:51:14.601Z,100.00
2022-10-10T04:53:44.016Z,100.00
2022-10-10T04:56:14.555Z,100.00
2022-10-10T04:58:42.278Z,100.00
2022-10-10T05:01:09.975Z,100.00
2022-10-10T05:03:37.605Z,100.00
2022-10-10T05:06:05.226Z,100.00
2022-10-10T05:08:32.716Z,100.00
2022-10-10T05:11:00.688Z,100.00
2022-10-10T05:13:28.304Z,100.00
2022-10-10T05:15:55.894Z,100.00
2022-10-10T05:18:23.999Z,100.00
2022-10-10T05:20:51.522Z,100.00
2022-10-10T05:23:19.251Z,100.00
2022-10-10T05:25:51.167Z,100.00
2022-10-10T05:28:18.971Z,100.00
2022-10-10T05:30:46.537Z,100.00
2022-10-10T05:33:14.232Z,100.00
2022-10-10T05:35:41.829Z,100.00
2022-10-10T05:38:09.538Z,100.00
2022-10-10T05:40:40.564Z,100.00
2022-10-10T05:43:08.433Z,100.00
2022-10-10T05:45:36.295Z,100.00
2022-10-10T05:48:03.995Z,100.00
2022-10-10T05:50:36.116Z,100.00
2022-10-10T05:53:03.826Z,100.00
2022-10-10T05:55:31.454Z,100.00
2022-10-10T05:57:59.190Z,100.00
2022-10-10T06:00:26.667Z,100.00
2022-10-10T06:02:54.648Z,100.00
2022-10-10T06:05:22.665Z,100.00
2022-10-10T06:08:05.799Z,100.00
2022-10-10T06:10:44.784Z,100.00
2022-10-10T06:13:14.986Z,100.00
2022-10-10T06:15:43.324Z,100.00
2022-10-10T06:18:11.932Z,100.00
2022-10-10T06:20:41.419Z,100.00
2022-10-10T06:23:09.194Z,100.00
2022-10-10T06:25:41.520Z,100.00
2022-10-10T06:28:11.326Z,100.00
2022-10-10T06:30:43.048Z,100.00
2022-10-10T06:33:12.385Z,100.00
2022-10-10T06:35:45.084Z,100.00
2022-10-10T06:38:13.672Z,100.00
2022-10-10T06:40:41.840Z,100.00
2022-10-10T06:43:12.319Z,100.00
2022-10-10T06:45:42.592Z,100.00
2022-10-10T06:48:11.975Z,100.00
2022-10-10T06:50:39.852Z,100.00
2022-10-10T06:53:07.581Z,100.00
2022-10-10T06:55:35.356Z,100.00
2022-10-10T06:58:03.482Z,100.00
2022-10-10T07:00:31.003Z,100.00
2022-10-10T07:02:58.562Z,100.00
2022-10-10T07:05:26.066Z,100.00
2022-10-10T07:07:53.580Z,100.00
2022-10-10T07:10:21.049Z,100.00
2022-10-10T07:12:48.538Z,100.00
2022-10-10T07:15:16.068Z,100.00
2022-10-10T07:17:43.527Z,100.00
2022-10-10T07:20:11.019Z,100.00
2022-10-10T07:22:38.577Z,100.00
2022-10-10T07:25:06.443Z,100.00
2022-10-10T07:27:33.921Z,100.00
2022-10-10T07:30:01.545Z,100.00
2022-10-10T07:32:29.061Z,100.00
2022-10-10T07:34:58.464Z,100.00
2022-10-10T07:37:26.020Z,100.00
2022-10-10T07:39:54.004Z,100.00
2022-10-10T07:42:21.876Z,100.00
2022-10-10T07:44:49.548Z,100.00
2022-10-10T07:47:17.190Z,100.00
2022-10-10T07:49:44.809Z,100.00
2022-10-10T07:52:12.559Z,98.35
2022-10-10T07:54:40.012Z,96.82
2022-10-10T07:57:07.550Z,97.35
2022-10-10T07:59:35.274Z,96.06
2022-10-10T08:02:02.820Z,94.87
2022-10-10T08:04:30.332Z,95.26
2022-10-10T08:06:58.114Z,94.74
2022-10-10T08:09:25.583Z,93.39
2022-10-10T08:11:53.079Z,93.28
2022-10-10T08:14:20.508Z,92.10
2022-10-10T08:16:47.945Z,91.57
2022-10-10T08:19:15.358Z,90.55
2022-10-10T08:21:42.787Z,90.64
2022-10-10T08:24:10.248Z,91.00
2022-10-10T08:26:37.721Z,90.76
2022-10-10T08:29:05.134Z,91.38
2022-10-10T08:31:32.617Z,92.21
2022-10-10T08:34:00.276Z,92.51
2022-10-10T08:36:28.102Z,93.46
2022-10-10T08:39:01.077Z,94.21
2022-10-10T08:41:31.551Z,94.55
2022-10-10T08:44:04.467Z,94.22
2022-10-10T08:46:31.902Z,94.61
2022-10-10T08:49:13.923Z,94.27
2022-10-10T08:51:47.125Z,94.61
2022-10-10T08:54:17.534Z,94.62
2022-10-10T08:56:45.322Z,94.84
2022-10-10T08:59:21.807Z,94.89
2022-10-10T09:02:17.630Z,94.89
2022-10-10T09:04:39.741Z,94.44
2022-10-10T09:07:51.155Z,94.46
2022-10-10T09:10:59.610Z,94.48
2022-10-10T09:13:38.628Z,94.53
2022-10-10T09:16:33.809Z,94.02
2022-10-10T09:19:36.546Z,93.89
2022-10-10T09:22:11.200Z,92.01
2022-10-10T09:24:55.791Z,91.53
2022-10-10T09:27:27.219Z,90.68
2022-10-10T09:30:17.781Z,90.58
2022-10-10T09:32:52.016Z,90.66
2022-10-10T09:35:24.005Z,90.38
2022-10-10T09:38:17.474Z,88.46
2022-10-10T09:40:52.408Z,87.37
2022-10-10T09:43:21.462Z,86.59
2022-10-10T09:45:54.254Z,84.90
2022-10-10T09:48:28.986Z,84.23
2022-10-10T09:50:57.370Z,84.60
2022-10-10T09:53:25.029Z,84.50
2022-10-10T09:55:54.002Z,84.31
2022-10-10T09:58:21.457Z,84.09
2022-10-10T10:00:49.236Z,84.03
2022-10-10T10:03:19.236Z,84.45
2022-10-10T10:06:00.376Z,84.78
2022-10-10T10:08:36.640Z,84.58
2022-10-10T10:11:05.321Z,85.01
2022-10-10T10:13:37.769Z,85.27
2022-10-10T10:16:09.076Z,83.30
2022-10-10T10:18:45.370Z,82.94
2022-10-10T10:21:20.463Z,82.32
2022-10-10T10:24:02.523Z,82.33
2022-10-10T10:26:44.401Z,81.37
2022-10-10T10:29:46.196Z,80.62
2022-10-10T10:32:17.511Z,79.68
2022-10-10T10:35:12.503Z,79.23
2022-10-10T10:38:17.352Z,78.08
2022-10-10T10:41:03.637Z,77.77
2022-10-10T10:43:51.190Z,77.32
2022-10-10T10:46:30.964Z,76.76
2022-10-10T10:49:10.546Z,75.90
2022-10-10T10:52:09.044Z,75.57
2022-10-10T10:55:02.904Z,74.95
2022-10-10T10:58:22.385Z,73.91
2022-10-10T11:01:20.220Z,74.78
2022-10-10T11:05:20.030Z,73.64
2022-10-10T11:07:24.561Z,73.72
2022-10-10T11:10:21.966Z,73.80
2022-10-10T11:13:44.991Z,73.38
2022-10-10T11:16:46.995Z,72.81
2022-10-10T11:19:14.026Z,73.07
2022-10-10T11:21:46.612Z,73.03
2022-10-10T11:24:28.330Z,72.62
2022-10-10T11:27:01.107Z,71.95
2022-10-10T11:29:34.426Z,71.44
2022-10-10T11:32:13.969Z,70.40
2022-10-10T11:34:50.824Z,69.64
2022-10-10T11:37:25.777Z,68.41
2022-10-10T11:39:57.521Z,67.70
2022-10-10T11:42:29.974Z,68.03
2022-10-10T11:45:07.010Z,69.09
2022-10-10T11:47:46.625Z,68.91
2022-10-10T11:50:27.813Z,70.24
2022-10-10T11:53:17.301Z,71.23
2022-10-10T11:55:53.028Z,71.22
2022-10-10T11:58:28.513Z,69.88
2022-10-10T12:01:13.182Z,70.06
2022-10-10T12:03:40.815Z,70.25
2022-10-10T12:06:38.578Z,70.02
2022-10-10T12:09:32.472Z,70.34
2022-10-10T12:12:10.930Z,69.74
2022-10-10T12:14:44.582Z,70.07
2022-10-10T12:17:21.796Z,69.98
2022-10-10T12:19:51.636Z,70.42
2022-10-10T12:22:31.002Z,70.73
2022-10-10T12:25:25.474Z,70.12
2022-10-10T12:28:14.876Z,69.06
2022-10-10T12:30:58.766Z,68.89
2022-10-10T12:33:26.348Z,69.60
2022-10-10T12:35:54.286Z,69.69
2022-10-10T12:38:30.672Z,70.37
2022-10-10T12:41:04.680Z,70.62
2022-10-10T12:43:44.492Z,70.78
2022-10-10T12:46:24.954Z,70.26
2022-10-10T12:48:58.631Z,70.61
2022-10-10T12:51:28.076Z,70.08
2022-10-10T12:53:58.583Z,70.40
2022-10-10T12:56:39.793Z,70.18
2022-10-10T12:59:18.574Z,70.09
2022-10-10T13:01:52.035Z,70.20
2022-10-10T13:04:20.859Z,69.84
2022-10-10T13:06:51.745Z,70.33
2022-10-10T13:09:28.091Z,70.52
2022-10-10T13:11:58.661Z,70.56
2022-10-10T13:14:38.099Z,70.99
2022-10-10T13:17:25.399Z,71.46
2022-10-10T13:19:54.994Z,71.77
2022-10-10T13:22:23.558Z,72.31
2022-10-10T13:24:52.042Z,72.38
2022-10-10T13:27:21.403Z,72.61
2022-10-10T13:29:53.073Z,73.06
2022-10-10T13:32:35.615Z,73.49
2022-10-10T13:35:13.273Z,74.09
2022-10-10T13:37:42.951Z,74.20
2022-10-10T13:40:15.791Z,74.40
2022-10-10T13:42:45.892Z,74.63
2022-10-10T13:45:30.678Z,75.07
2022-10-10T13:48:01.165Z,75.27
2022-10-10T13:50:32.174Z,75.15
2022-10-10T13:53:23.188Z,75.48
2022-10-10T13:55:58.720Z,75.34
2022-10-10T13:58:31.146Z,75.39
2022-10-10T14:01:01.665Z,75.40
2022-10-10T14:03:31.449Z,75.47
2022-10-10T14:05:59.453Z,75.22
2022-10-10T14:08:32.252Z,75.13
2022-10-10T14:11:22.071Z,74.40
2022-10-10T14:14:00.033Z,74.34
2022-10-10T14:16:27.561Z,73.85
2022-10-10T14:18:55.029Z,73.42
2022-10-10T14:21:22.836Z,73.09
2022-10-10T14:23:50.679Z,73.07
2022-10-10T14:26:20.029Z,72.04
2022-10-10T14:28:47.844Z,71.90
2022-10-10T14:31:15.909Z,71.57
2022-10-10T14:33:43.756Z,71.19
2022-10-10T14:36:12.554Z,69.89
2022-10-10T14:38:40.362Z,68.99
2022-10-10T14:41:12.667Z,68.38
2022-10-10T14:43:45.475Z,68.71
2022-10-10T14:46:19.915Z,69.08
2022-10-10T14:48:47.552Z,69.82
2022-10-10T14:51:35.161Z,70.81
2022-10-10T14:54:10.722Z,71.55
2022-10-10T14:57:09.062Z,72.04
2022-10-10T14:59:46.286Z,73.22
2022-10-10T15:02:19.288Z,74.01
2022-10-10T15:04:46.897Z,74.53
2022-10-10T15:07:15.673Z,75.17
2022-10-10T15:12:43.544Z,75.31
2022-10-10T15:15:14.453Z,75.51
2022-10-10T15:17:42.437Z,75.58
2022-10-10T15:20:11.739Z,75.73
2022-10-10T15:22:40.310Z,76.32
2022-10-10T15:25:08.720Z,76.40
2022-10-10T15:27:37.535Z,76.42
2022-10-10T15:30:06.285Z,76.43
2022-10-10T15:32:33.866Z,76.66
2022-10-10T15:35:01.367Z,76.91
2022-10-10T15:37:29.043Z,77.28
2022-10-10T15:39:57.055Z,77.77
2022-10-10T15:42:24.849Z,78.24
2022-10-10T15:44:52.511Z,78.31
2022-10-10T15:47:20.891Z,78.67
2022-10-10T15:49:49.209Z,79.16
2022-10-10T15:52:17.920Z,79.66
2022-10-10T15:54:48.666Z,80.14
2022-10-10T15:57:18.791Z,80.51
2022-10-10T15:59:47.484Z,80.75
2022-10-10T16:02:16.136Z,80.87
2022-10-10T16:04:44.893Z,81.03
2022-10-10T16:07:28.156Z,81.12
2022-10-10T16:09:57.889Z,81.45
2022-10-10T16:12:25.360Z,81.82
2022-10-10T16:14:52.908Z,81.75
2022-10-10T16:17:23.276Z,82.12
2022-10-10T16:19:52.369Z,82.05
2022-10-10T16:22:20.465Z,82.31
2022-10-10T16:25:17.295Z,82.53
2022-10-10T16:27:38.104Z,82.85
2022-10-10T16:30:06.991Z,83.21
2022-10-10T16:32:39.312Z,83.23
2022-10-10T16:35:11.154Z,83.22
2022-10-10T16:37:39.267Z,83.60
2022-10-10T16:40:08.015Z,83.63
2022-10-10T16:42:35.851Z,83.62
2022-10-10T16:45:04.462Z,84.23
2022-10-10T16:47:32.283Z,84.20
2022-10-10T16:50:01.146Z,84.17
2022-10-10T16:52:28.977Z,84.31
2022-10-10T16:54:56.810Z,84.44
2022-10-10T16:57:24.444Z,84.60
2022-10-10T16:59:52.446Z,85.29
2022-10-10T17:02:24.315Z,85.51
2022-10-10T17:04:56.162Z,86.06
2022-10-10T17:07:24.322Z,86.67
2022-10-10T17:09:51.993Z,87.41
2022-10-10T17:12:19.695Z,87.95
2022-10-10T17:14:47.473Z,88.45
2022-10-10T17:17:17.500Z,88.89
2022-10-10T17:19:45.271Z,89.19
2022-10-10T17:22:12.853Z,89.80
2022-10-10T17:24:41.516Z,89.54
2022-10-10T17:27:09.025Z,90.07
2022-10-10T17:29:36.603Z,90.58
2022-10-10T17:32:06.477Z,90.71
2022-10-10T17:34:35.427Z,91.24
2022-10-10T17:37:04.180Z,91.19
2022-10-10T17:39:32.548Z,91.97
2022-10-10T17:42:00.612Z,91.89
2022-10-10T17:44:28.591Z,91.93
2022-10-10T17:46:56.723Z,92.17
2022-10-10T17:49:24.558Z,92.62
2022-10-10T17:51:52.337Z,93.08
2022-10-10T17:54:19.966Z,93.75
2022-10-10T17:56:47.550Z,93.98
2022-10-10T17:59:15.377Z,94.22
2022-10-10T18:01:43.039Z,94.90
2022-10-10T18:04:14.732Z,95.75
2022-10-10T18:06:42.362Z,95.55
2022-10-10T18:09:10.670Z,96.26
2022-10-10T18:11:38.384Z,95.98
2022-10-10T18:14:06.205Z,96.82
2022-10-10T18:16:34.448Z,96.98
2022-10-10T18:19:04.501Z,97.13
2022-10-10T18:21:32.345Z,97.22
2022-10-10T18:24:01.081Z,97.96
2022-10-10T18:26:29.902Z,97.95
2022-10-10T18:28:58.206Z,98.19
2022-10-10T18:31:28.967Z,98.10
2022-10-10T18:33:56.609Z,98.37
2022-10-10T18:36:27.622Z,98.59
2022-10-10T18:39:00.570Z,98.26
2022-10-10T18:41:34.036Z,98.67
2022-10-10T18:44:11.909Z,98.44
2022-10-10T18:46:40.149Z,98.26
2022-10-10T18:49:10.998Z,98.26
2022-10-10T18:51:41.362Z,98.24
2022-10-10T18:54:11.843Z,98.14
2022-10-10T18:56:41.115Z,97.36
2022-10-10T18:59:15.475Z,97.92
2022-10-10T19:01:45.760Z,97.67
2022-10-10T19:04:15.489Z,97.69
2022-10-10T19:06:44.125Z,97.81
2022-10-10T19:09:15.866Z,97.06
2022-10-10T19:11:47.468Z,96.91
2022-10-10T19:14:17.723Z,97.18
2022-10-10T19:16:47.405Z,96.92
2022-10-10T19:19:18.278Z,96.87
2022-10-10T19:21:48.038Z,95.95
2022-10-10T19:24:19.523Z,96.06
2022-10-10T19:26:53.124Z,96.09
2022-10-10T19:29:21.448Z,95.57
2022-10-10T19:31:49.198Z,95.15
2022-10-10T19:34:16.793Z,94.75
2022-10-10T19:36:45.020Z,94.11
2022-10-10T19:39:13.136Z,94.02
2022-10-10T19:41:41.059Z,93.60
2022-10-10T19:44:10.807Z,93.21
2022-10-10T19:46:38.490Z,93.02
2022-10-10T19:49:06.858Z,92.50
2022-10-10T19:51:34.681Z,92.49
2022-10-10T19:54:02.485Z,92.46
2022-10-10T19:56:30.136Z,91.56
2022-10-10T19:59:00.244Z,91.50
2022-10-10T20:01:29.922Z,90.93
2022-10-10T20:03:59.145Z,91.31
2022-10-10T20:06:27.214Z,90.91
2022-10-10T20:08:55.243Z,90.52
2022-10-10T20:11:23.416Z,90.86
2022-10-10T20:13:53.216Z,90.55
2022-10-10T20:16:22.384Z,90.47
2022-10-10T20:18:50.222Z,90.90
2022-10-10T20:21:22.074Z,90.57
2022-10-10T20:23:50.087Z,90.80
2022-10-10T20:26:20.848Z,90.63
2022-10-10T20:28:50.728Z,90.64
2022-10-10T20:31:23.393Z,90.40
2022-10-10T20:33:53.122Z,91.08
2022-10-10T20:36:23.201Z,90.60
2022-10-10T20:38:52.966Z,91.17
2022-10-10T20:41:22.121Z,91.20
2022-10-10T20:43:49.765Z,90.95
2022-10-10T20:46:17.367Z,90.84
2022-10-10T20:48:44.898Z,91.15
2022-10-10T20:51:13.794Z,91.31
2022-10-10T20:53:44.501Z,91.49
2022-10-10T20:56:13.158Z,92.16
2022-10-10T20:58:40.947Z,91.54
2022-10-10T21:01:08.511Z,91.85
2022-10-10T21:03:37.896Z,91.95
2022-10-10T21:06:14.451Z,91.79
2022-10-10T21:08:43.193Z,91.89
2022-10-10T21:11:13.232Z,92.69
2022-10-10T21:13:44.074Z,92.33
2022-10-10T21:16:15.334Z,92.18
2022-10-10T21:18:56.989Z,92.17
2022-10-10T21:21:34.676Z,92.04
2022-10-10T21:24:06.254Z,92.22
2022-10-10T21:26:34.370Z,92.38
2022-10-10T21:29:02.526Z,92.30
2022-10-10T21:31:32.767Z,92.56
2022-10-10T21:34:02.589Z,92.25
2022-10-10T21:36:31.922Z,92.26
2022-10-10T21:39:01.057Z,92.52
2022-10-10T21:41:29.103Z,92.27
2022-10-10T21:43:59.651Z,92.24
2022-10-10T21:46:34.738Z,92.66
2022-10-10T21:49:09.842Z,92.33
2022-10-10T21:51:42.697Z,92.63
2022-10-10T21:54:10.566Z,92.61
2022-10-10T21:56:38.599Z,92.71
2022-10-10T21:59:06.752Z,92.68
2022-10-10T22:01:34.539Z,92.85
2022-10-10T22:04:02.927Z,93.30
2022-10-10T22:06:30.816Z,93.39
2022-10-10T22:08:59.710Z,93.69
2022-10-10T22:11:29.296Z,93.57
2022-10-10T22:13:57.145Z,93.55
2022-10-10T22:16:24.923Z,93.50
2022-10-10T22:18:57.672Z,93.70
2022-10-10T22:21:30.196Z,94.04
2022-10-10T22:24:01.956Z,94.20
2022-10-10T22:26:30.409Z,94.02
2022-10-10T22:28:58.373Z,94.21
2022-10-10T22:31:26.019Z,93.95
2022-10-10T22:33:53.616Z,94.21
2022-10-10T22:36:21.085Z,94.00
2022-10-10T22:38:48.526Z,94.47
2022-10-10T22:41:16.047Z,93.90
2022-10-10T22:43:43.573Z,93.96
2022-10-10T22:46:11.017Z,94.29
2022-10-10T22:48:39.227Z,94.10
2022-10-10T22:51:12.627Z,94.29
2022-10-10T22:53:41.974Z,93.72
2022-10-10T22:56:10.957Z,94.01
2022-10-10T22:58:38.643Z,94.01
2022-10-10T23:01:08.833Z,94.08
2022-10-10T23:03:36.330Z,93.86
2022-10-10T23:06:04.280Z,94.52
2022-10-10T23:08:32.542Z,94.43
2022-10-10T23:11:00.085Z,94.73
2022-10-10T23:13:28.218Z,94.85
2022-10-10T23:15:55.766Z,94.92
2022-10-10T23:18:23.483Z,94.83
2022-10-10T23:20:51.236Z,95.10
2022-10-10T23:23:18.985Z,95.34
2022-10-10T23:25:47.805Z,95.37
2022-10-10T23:28:15.896Z,95.46
2022-10-10T23:30:45.283Z,95.29
2022-10-10T23:33:14.027Z,95.13
2022-10-10T23:35:41.610Z,95.26
2022-10-10T23:38:09.168Z,95.46
2022-10-10T23:40:36.819Z,95.26
2022-10-10T23:43:04.457Z,95.50
2022-10-10T23:45:32.193Z,94.78
2022-10-10T23:47:59.848Z,94.60
2022-10-10T23:50:27.300Z,94.59
2022-10-10T23:52:54.994Z,94.57
2022-10-10T23:55:22.687Z,94.66
2022-10-10T23:57:50.224Z,94.48
